sensor_id;sensor_type;location;lat;lon;timestamp;P1;durP1;ratioP1;P2;durP2;ratioP2
71759;SDS011;59919;48.112;16.280;2023-02-03T00:02:04;0.82;;;0.80;;
71759;SDS011;59919;48.112;16.280;2023-02-03T00:04:35;1.15;;;0.60;;
71759;SDS011;59919;48.112;16.280;2023-02-03T00:07:10;0.98;;;0.60;;
71759;SDS011;59919;48.112;16.280;2023-02-03T00:09:43;1.58;;;0.95;;
71759;SDS011;59919;48.112;16.280;2023-02-03T00:12:16;2.25;;;0.70;;
71759;SDS011;59919;48.112;16.280;2023-02-03T00:14:49;1.00;;;0.63;;
71759;SDS011;59919;48.112;16.280;2023-02-03T00:17:20;1.00;;;0.73;;
71759;SDS011;59919;48.112;16.280;2023-02-03T00:19:51;0.90;;;0.70;;
71759;SDS011;59919;48.112;16.280;2023-02-03T00:22:22;1.08;;;0.70;;
71759;SDS011;59919;48.112;16.280;2023-02-03T00:24:59;0.88;;;0.70;;
71759;SDS011;59919;48.112;16.280;2023-02-03T00:27:30;1.00;;;0.82;;
71759;SDS011;59919;48.112;16.280;2023-02-03T00:30:01;0.88;;;0.70;;
71759;SDS011;59919;48.112;16.280;2023-02-03T00:32:32;1.05;;;0.60;;
71759;SDS011;59919;48.112;16.280;2023-02-03T00:35:04;1.10;;;0.60;;
71759;SDS011;59919;48.112;16.280;2023-02-03T00:37:38;2.63;;;0.80;;
71759;SDS011;59919;48.112;16.280;2023-02-03T00:40:11;1.05;;;0.70;;
71759;SDS011;59919;48.112;16.280;2023-02-03T00:42:43;1.92;;;0.90;;
71759;SDS011;59919;48.112;16.280;2023-02-03T00:45:15;1.15;;;0.70;;
71759;SDS011;59919;48.112;16.280;2023-02-03T00:47:46;1.27;;;0.80;;
71759;SDS011;59919;48.112;16.280;2023-02-03T00:50:17;0.77;;;0.60;;
71759;SDS011;59919;48.112;16.280;2023-02-03T00:52:48;1.20;;;0.70;;
71759;SDS011;59919;48.112;16.280;2023-02-03T00:55:19;1.20;;;0.68;;
71759;SDS011;59919;48.112;16.280;2023-02-03T00:57:50;1.75;;;0.60;;
71759;SDS011;59919;48.112;16.280;2023-02-03T01:00:21;1.48;;;0.90;;
71759;SDS011;59919;48.112;16.280;2023-02-03T01:02:56;1.08;;;0.70;;
71759;SDS011;59919;48.112;16.280;2023-02-03T01:05:27;0.77;;;0.63;;
71759;SDS011;59919;48.112;16.280;2023-02-03T01:07:59;0.55;;;0.55;;
71759;SDS011;59919;48.112;16.280;2023-02-03T01:10:30;0.73;;;0.52;;
71759;SDS011;59919;48.112;16.280;2023-02-03T01:13:02;0.63;;;0.60;;
71759;SDS011;59919;48.112;16.280;2023-02-03T01:15:35;0.52;;;0.52;;
71759;SDS011;59919;48.112;16.280;2023-02-03T01:18:06;1.17;;;0.82;;
71759;SDS011;59919;48.112;16.280;2023-02-03T01:20:37;1.30;;;0.82;;
71759;SDS011;59919;48.112;16.280;2023-02-03T01:23:11;0.90;;;0.68;;
71759;SDS011;59919;48.112;16.280;2023-02-03T01:25:44;1.13;;;0.68;;
71759;SDS011;59919;48.112;16.280;2023-02-03T01:28:18;0.90;;;0.60;;
71759;SDS011;59919;48.112;16.280;2023-02-03T01:30:50;0.60;;;0.50;;
71759;SDS011;59919;48.112;16.280;2023-02-03T01:33:21;0.75;;;0.60;;
71759;SDS011;59919;48.112;16.280;2023-02-03T01:35:53;1.10;;;0.50;;
71759;SDS011;59919;48.112;16.280;2023-02-03T01:38:24;0.77;;;0.50;;
71759;SDS011;59919;48.112;16.280;2023-02-03T01:40:55;1.25;;;0.60;;
71759;SDS011;59919;48.112;16.280;2023-02-03T01:43:30;1.02;;;0.80;;
71759;SDS011;59919;48.112;16.280;2023-02-03T01:46:04;0.80;;;0.65;;
71759;SDS011;59919;48.112;16.280;2023-02-03T01:48:45;1.42;;;0.80;;
71759;SDS011;59919;48.112;16.280;2023-02-03T01:51:17;0.85;;;0.50;;
71759;SDS011;59919;48.112;16.280;2023-02-03T01:53:49;1.27;;;0.75;;
71759;SDS011;59919;48.112;16.280;2023-02-03T01:56:22;0.60;;;0.50;;
71759;SDS011;59919;48.112;16.280;2023-02-03T01:58:59;1.02;;;0.60;;
71759;SDS011;59919;48.112;16.280;2023-02-03T02:01:30;0.65;;;0.60;;
71759;SDS011;59919;48.112;16.280;2023-02-03T02:04:03;0.50;;;0.50;;
71759;SDS011;59919;48.112;16.280;2023-02-03T02:06:35;0.60;;;0.50;;
71759;SDS011;59919;48.112;16.280;2023-02-03T02:09:06;0.40;;;0.40;;
71759;SDS011;59919;48.112;16.280;2023-02-03T02:11:38;1.27;;;0.50;;
71759;SDS011;59919;48.112;16.280;2023-02-03T02:14:09;0.70;;;0.40;;
71759;SDS011;59919;48.112;16.280;2023-02-03T02:19:41;0.70;;;0.55;;
71759;SDS011;59919;48.112;16.280;2023-02-03T02:25:55;0.40;;;0.40;;
71759;SDS011;59919;48.112;16.280;2023-02-03T02:28:58;0.50;;;0.40;;
71759;SDS011;59919;48.112;16.280;2023-02-03T02:31:52;0.80;;;0.52;;
71759;SDS011;59919;48.112;16.280;2023-02-03T02:45:50;0.40;;;0.40;;
71759;SDS011;59919;48.112;16.280;2023-02-03T02:51:19;0.40;;;0.30;;
71759;SDS011;59919;48.112;16.280;2023-02-03T02:53:54;0.95;;;0.40;;
71759;SDS011;59919;48.112;16.280;2023-02-03T02:56:30;0.40;;;0.40;;
71759;SDS011;59919;48.112;16.280;2023-02-03T02:59:04;0.63;;;0.45;;
71759;SDS011;59919;48.112;16.280;2023-02-03T03:01:55;0.90;;;0.45;;
71759;SDS011;59919;48.112;16.280;2023-02-03T03:04:27;0.63;;;0.45;;
71759;SDS011;59919;48.112;16.280;2023-02-03T03:07:08;0.35;;;0.30;;
71759;SDS011;59919;48.112;16.280;2023-02-03T03:09:50;0.80;;;0.43;;
71759;SDS011;59919;48.112;16.280;2023-02-03T03:12:33;0.52;;;0.40;;
71759;SDS011;59919;48.112;16.280;2023-02-03T03:15:10;0.55;;;0.40;;
71759;SDS011;59919;48.112;16.280;2023-02-03T03:17:50;0.40;;;0.30;;
71759;SDS011;59919;48.112;16.280;2023-02-03T03:20:34;0.77;;;0.40;;
71759;SDS011;59919;48.112;16.280;2023-02-03T03:23:09;1.02;;;0.45;;
71759;SDS011;59919;48.112;16.280;2023-02-03T03:25:46;0.50;;;0.40;;
71759;SDS011;59919;48.112;16.280;2023-02-03T03:28:24;0.40;;;0.38;;
71759;SDS011;59919;48.112;16.280;2023-02-03T03:31:14;0.35;;;0.30;;
71759;SDS011;59919;48.112;16.280;2023-02-03T03:33:49;0.38;;;0.30;;
71759;SDS011;59919;48.112;16.280;2023-02-03T03:36:30;0.52;;;0.30;;
71759;SDS011;59919;48.112;16.280;2023-02-03T03:44:27;0.65;;;0.35;;
71759;SDS011;59919;48.112;16.280;2023-02-03T03:47:10;0.40;;;0.40;;
71759;SDS011;59919;48.112;16.280;2023-02-03T03:49:53;1.02;;;0.30;;
71759;SDS011;59919;48.112;16.280;2023-02-03T03:52:30;0.30;;;0.20;;
71759;SDS011;59919;48.112;16.280;2023-02-03T03:55:05;0.52;;;0.30;;
71759;SDS011;59919;48.112;16.280;2023-02-03T03:57:50;0.73;;;0.38;;
71759;SDS011;59919;48.112;16.280;2023-02-03T04:00:26;0.30;;;0.30;;
71759;SDS011;59919;48.112;16.280;2023-02-03T04:03:03;0.63;;;0.30;;
71759;SDS011;59919;48.112;16.280;2023-02-03T04:05:37;0.70;;;0.40;;
71759;SDS011;59919;48.112;16.280;2023-02-03T04:08:09;0.20;;;0.20;;
71759;SDS011;59919;48.112;16.280;2023-02-03T04:10:43;0.47;;;0.40;;
71759;SDS011;59919;48.112;16.280;2023-02-03T04:13:17;0.30;;;0.30;;
71759;SDS011;59919;48.112;16.280;2023-02-03T04:15:50;0.57;;;0.30;;
71759;SDS011;59919;48.112;16.280;2023-02-03T04:18:20;0.13;;;0.10;;
71759;SDS011;59919;48.112;16.280;2023-02-03T04:20:52;0.35;;;0.35;;
71759;SDS011;59919;48.112;16.280;2023-02-03T04:23:23;0.52;;;0.30;;
71759;SDS011;59919;48.112;16.280;2023-02-03T04:25:54;0.30;;;0.30;;
71759;SDS011;59919;48.112;16.280;2023-02-03T04:28:25;0.35;;;0.20;;
71759;SDS011;59919;48.112;16.280;2023-02-03T04:31:01;0.52;;;0.30;;
71759;SDS011;59919;48.112;16.280;2023-02-03T04:33:32;0.30;;;0.25;;
71759;SDS011;59919;48.112;16.280;2023-02-03T04:36:03;0.60;;;0.35;;
71759;SDS011;59919;48.112;16.280;2023-02-03T04:38:35;0.45;;;0.30;;
71759;SDS011;59919;48.112;16.280;2023-02-03T04:41:07;0.47;;;0.30;;
71759;SDS011;59919;48.112;16.280;2023-02-03T04:43:38;0.30;;;0.17;;
71759;SDS011;59919;48.112;16.280;2023-02-03T04:46:09;0.40;;;0.20;;
71759;SDS011;59919;48.112;16.280;2023-02-03T04:48:40;0.52;;;0.30;;
71759;SDS011;59919;48.112;16.280;2023-02-03T04:51:17;0.47;;;0.32;;
71759;SDS011;59919;48.112;16.280;2023-02-03T04:53:50;0.45;;;0.30;;
71759;SDS011;59919;48.112;16.280;2023-02-03T04:56:21;0.30;;;0.20;;
71759;SDS011;59919;48.112;16.280;2023-02-03T04:58:55;0.35;;;0.17;;
71759;SDS011;59919;48.112;16.280;2023-02-03T05:01:28;0.80;;;0.30;;
71759;SDS011;59919;48.112;16.280;2023-02-03T05:04:00;1.33;;;0.30;;
71759;SDS011;59919;48.112;16.280;2023-02-03T05:06:36;0.30;;;0.20;;
71759;SDS011;59919;48.112;16.280;2023-02-03T05:09:09;0.22;;;0.20;;
71759;SDS011;59919;48.112;16.280;2023-02-03T05:11:40;0.47;;;0.30;;
71759;SDS011;59919;48.112;16.280;2023-02-03T05:14:11;0.90;;;0.38;;
71759;SDS011;59919;48.112;16.280;2023-02-03T05:16:48;0.30;;;0.30;;
71759;SDS011;59919;48.112;16.280;2023-02-03T05:19:21;0.40;;;0.30;;
71759;SDS011;59919;48.112;16.280;2023-02-03T05:21:52;0.75;;;0.38;;
71759;SDS011;59919;48.112;16.280;2023-02-03T05:24:23;1.15;;;0.30;;
71759;SDS011;59919;48.112;16.280;2023-02-03T05:26:56;0.80;;;0.30;;
71759;SDS011;59919;48.112;16.280;2023-02-03T05:29:27;0.40;;;0.20;;
71759;SDS011;59919;48.112;16.280;2023-02-03T05:32:01;0.32;;;0.28;;
71759;SDS011;59919;48.112;16.280;2023-02-03T05:34:32;0.43;;;0.20;;
71759;SDS011;59919;48.112;16.280;2023-02-03T05:37:05;0.47;;;0.35;;
71759;SDS011;59919;48.112;16.280;2023-02-03T05:39:38;0.50;;;0.28;;
71759;SDS011;59919;48.112;16.280;2023-02-03T05:42:09;0.20;;;0.20;;
71759;SDS011;59919;48.112;16.280;2023-02-03T05:44:40;0.30;;;0.20;;
71759;SDS011;59919;48.112;16.280;2023-02-03T05:47:11;1.02;;;0.30;;
71759;SDS011;59919;48.112;16.280;2023-02-03T05:49:44;0.68;;;0.30;;
71759;SDS011;59919;48.112;16.280;2023-02-03T05:52:17;0.70;;;0.30;;
71759;SDS011;59919;48.112;16.280;2023-02-03T05:54:51;0.25;;;0.20;;
71759;SDS011;59919;48.112;16.280;2023-02-03T05:57:25;0.60;;;0.28;;
71759;SDS011;59919;48.112;16.280;2023-02-03T05:59:57;0.43;;;0.20;;
71759;SDS011;59919;48.112;16.280;2023-02-03T06:02:28;1.38;;;0.40;;
71759;SDS011;59919;48.112;16.280;2023-02-03T06:04:59;0.47;;;0.22;;
71759;SDS011;59919;48.112;16.280;2023-02-03T06:07:30;0.45;;;0.30;;
71759;SDS011;59919;48.112;16.280;2023-02-03T06:10:01;1.15;;;0.22;;
71759;SDS011;59919;48.112;16.280;2023-02-03T06:12:32;0.43;;;0.30;;
71759;SDS011;59919;48.112;16.280;2023-02-03T06:15:03;0.82;;;0.30;;
71759;SDS011;59919;48.112;16.280;2023-02-03T06:17:35;0.63;;;0.40;;
71759;SDS011;59919;48.112;16.280;2023-02-03T06:20:08;0.40;;;0.22;;
71759;SDS011;59919;48.112;16.280;2023-02-03T06:22:43;0.47;;;0.20;;
71759;SDS011;59919;48.112;16.280;2023-02-03T06:25:14;0.90;;;0.30;;
71759;SDS011;59919;48.112;16.280;2023-02-03T06:27:45;1.10;;;0.20;;
71759;SDS011;59919;48.112;16.280;2023-02-03T06:30:16;0.50;;;0.30;;
71759;SDS011;59919;48.112;16.280;2023-02-03T06:32:47;0.35;;;0.20;;
71759;SDS011;59919;48.112;16.280;2023-02-03T06:35:21;0.20;;;0.20;;
71759;SDS011;59919;48.112;16.280;2023-02-03T06:37:55;0.28;;;0.25;;
71759;SDS011;59919;48.112;16.280;2023-02-03T06:40:28;2.03;;;0.30;;
71759;SDS011;59919;48.112;16.280;2023-02-03T06:43:02;0.20;;;0.10;;
71759;SDS011;59919;48.112;16.280;2023-02-03T06:45:33;0.40;;;0.20;;
71759;SDS011;59919;48.112;16.280;2023-02-03T06:48:04;0.32;;;0.20;;
71759;SDS011;59919;48.112;16.280;2023-02-03T06:50:35;1.08;;;0.20;;
71759;SDS011;59919;48.112;16.280;2023-02-03T06:53:06;0.57;;;0.20;;
71759;SDS011;59919;48.112;16.280;2023-02-03T06:55:37;0.50;;;0.20;;
71759;SDS011;59919;48.112;16.280;2023-02-03T06:58:08;1.25;;;0.20;;
71759;SDS011;59919;48.112;16.280;2023-02-03T07:00:39;0.20;;;0.20;;
71759;SDS011;59919;48.112;16.280;2023-02-03T07:03:13;0.30;;;0.20;;
71759;SDS011;59919;48.112;16.280;2023-02-03T07:05:44;0.73;;;0.10;;
71759;SDS011;59919;48.112;16.280;2023-02-03T07:08:15;0.43;;;0.30;;
71759;SDS011;59919;48.112;16.280;2023-02-03T07:10:46;0.43;;;0.22;;
71759;SDS011;59919;48.112;16.280;2023-02-03T07:13:17;0.17;;;0.15;;
71759;SDS011;59919;48.112;16.280;2023-02-03T07:15:47;1.30;;;0.20;;
71759;SDS011;59919;48.112;16.280;2023-02-03T07:18:21;1.05;;;0.30;;
71759;SDS011;59919;48.112;16.280;2023-02-03T07:20:54;0.88;;;0.20;;
71759;SDS011;59919;48.112;16.280;2023-02-03T07:23:25;0.52;;;0.28;;
71759;SDS011;59919;48.112;16.280;2023-02-03T07:25:59;1.85;;;0.30;;
71759;SDS011;59919;48.112;16.280;2023-02-03T07:28:36;0.28;;;0.20;;
71759;SDS011;59919;48.112;16.280;2023-02-03T07:31:07;0.88;;;0.20;;
71759;SDS011;59919;48.112;16.280;2023-02-03T07:33:42;1.15;;;0.20;;
71759;SDS011;59919;48.112;16.280;2023-02-03T07:36:13;0.22;;;0.10;;
71759;SDS011;59919;48.112;16.280;2023-02-03T07:38:46;0.50;;;0.43;;
71759;SDS011;59919;48.112;16.280;2023-02-03T07:41:17;0.10;;;0.10;;
71759;SDS011;59919;48.112;16.280;2023-02-03T07:43:48;0.22;;;0.20;;
71759;SDS011;59919;48.112;16.280;2023-02-03T07:46:23;0.50;;;0.40;;
71759;SDS011;59919;48.112;16.280;2023-02-03T07:48:56;1.45;;;0.20;;
71759;SDS011;59919;48.112;16.280;2023-02-03T07:51:27;0.30;;;0.30;;
71759;SDS011;59919;48.112;16.280;2023-02-03T07:53:58;1.55;;;0.38;;
71759;SDS011;59919;48.112;16.280;2023-02-03T07:56:29;1.40;;;0.20;;
71759;SDS011;59919;48.112;16.280;2023-02-03T07:59:02;1.35;;;0.20;;
71759;SDS011;59919;48.112;16.280;2023-02-03T08:01:33;0.60;;;0.20;;
71759;SDS011;59919;48.112;16.280;2023-02-03T08:04:04;0.77;;;0.20;;
71759;SDS011;59919;48.112;16.280;2023-02-03T08:06:35;0.35;;;0.20;;
71759;SDS011;59919;48.112;16.280;2023-02-03T08:09:06;0.40;;;0.20;;
71759;SDS011;59919;48.112;16.280;2023-02-03T08:11:39;0.65;;;0.30;;
71759;SDS011;59919;48.112;16.280;2023-02-03T08:14:10;0.40;;;0.20;;
71759;SDS011;59919;48.112;16.280;2023-02-03T08:16:41;0.88;;;0.28;;
71759;SDS011;59919;48.112;16.280;2023-02-03T08:19:13;0.85;;;0.20;;
71759;SDS011;59919;48.112;16.280;2023-02-03T08:21:46;0.90;;;0.40;;
71759;SDS011;59919;48.112;16.280;2023-02-03T08:24:17;0.22;;;0.20;;
71759;SDS011;59919;48.112;16.280;2023-02-03T08:26:53;0.43;;;0.22;;
71759;SDS011;59919;48.112;16.280;2023-02-03T08:29:24;0.20;;;0.20;;
71759;SDS011;59919;48.112;16.280;2023-02-03T08:31:55;0.30;;;0.30;;
71759;SDS011;59919;48.112;16.280;2023-02-03T08:34:30;0.40;;;0.30;;
71759;SDS011;59919;48.112;16.280;2023-02-03T08:37:03;0.25;;;0.20;;
71759;SDS011;59919;48.112;16.280;2023-02-03T08:39:37;0.35;;;0.30;;
71759;SDS011;59919;48.112;16.280;2023-02-03T08:42:08;1.48;;;0.20;;
71759;SDS011;59919;48.112;16.280;2023-02-03T08:44:40;1.38;;;0.25;;
71759;SDS011;59919;48.112;16.280;2023-02-03T08:47:14;0.40;;;0.30;;
71759;SDS011;59919;48.112;16.280;2023-02-03T08:49:45;0.32;;;0.20;;
71759;SDS011;59919;48.112;16.280;2023-02-03T08:52:16;0.20;;;0.20;;
71759;SDS011;59919;48.112;16.280;2023-02-03T08:54:48;1.48;;;0.25;;
71759;SDS011;59919;48.112;16.280;2023-02-03T08:57:19;0.52;;;0.30;;
71759;SDS011;59919;48.112;16.280;2023-02-03T08:59:50;0.68;;;0.30;;
71759;SDS011;59919;48.112;16.280;2023-02-03T09:02:22;1.55;;;0.22;;
71759;SDS011;59919;48.112;16.280;2023-02-03T09:04:53;0.85;;;0.38;;
71759;SDS011;59919;48.112;16.280;2023-02-03T09:07:24;0.75;;;0.30;;
71759;SDS011;59919;48.112;16.280;2023-02-03T09:09:55;1.60;;;0.40;;
71759;SDS011;59919;48.112;16.280;2023-02-03T09:12:29;0.93;;;0.25;;
71759;SDS011;59919;48.112;16.280;2023-02-03T09:15:00;0.90;;;0.30;;
71759;SDS011;59919;48.112;16.280;2023-02-03T09:17:31;0.63;;;0.20;;
71759;SDS011;59919;48.112;16.280;2023-02-03T09:20:07;1.30;;;0.20;;
71759;SDS011;59919;48.112;16.280;2023-02-03T09:22:39;0.30;;;0.20;;
71759;SDS011;59919;48.112;16.280;2023-02-03T09:25:12;0.85;;;0.30;;
71759;SDS011;59919;48.112;16.280;2023-02-03T09:27:49;0.47;;;0.20;;
71759;SDS011;59919;48.112;16.280;2023-02-03T09:30:21;0.22;;;0.20;;
71759;SDS011;59919;48.112;16.280;2023-02-03T09:32:52;0.90;;;0.30;;
71759;SDS011;59919;48.112;16.280;2023-02-03T09:35:28;0.60;;;0.37;;
71759;SDS011;59919;48.112;16.280;2023-02-03T09:37:59;1.40;;;0.35;;
71759;SDS011;59919;48.112;16.280;2023-02-03T09:40:32;1.67;;;0.30;;
71759;SDS011;59919;48.112;16.280;2023-02-03T09:48:56;0.52;;;0.32;;
71759;SDS011;59919;48.112;16.280;2023-02-03T09:51:52;0.17;;;0.17;;
71759;SDS011;59919;48.112;16.280;2023-02-03T09:57:04;0.77;;;0.30;;
71759;SDS011;59919;48.112;16.280;2023-02-03T09:59:42;0.35;;;0.17;;
71759;SDS011;59919;48.112;16.280;2023-02-03T10:10:57;0.40;;;0.22;;
71759;SDS011;59919;48.112;16.280;2023-02-03T10:19:08;1.42;;;0.20;;
71759;SDS011;59919;48.112;16.280;2023-02-03T10:21:54;2.10;;;0.35;;
71759;SDS011;59919;48.112;16.280;2023-02-03T10:24:48;0.77;;;0.20;;
71759;SDS011;59919;48.112;16.280;2023-02-03T10:27:27;0.90;;;0.20;;
71759;SDS011;59919;48.112;16.280;2023-02-03T10:30:02;0.90;;;0.30;;
71759;SDS011;59919;48.112;16.280;2023-02-03T10:32:34;0.65;;;0.20;;
71759;SDS011;59919;48.112;16.280;2023-02-03T10:35:12;0.22;;;0.22;;
71759;SDS011;59919;48.112;16.280;2023-02-03T10:37:47;0.20;;;0.20;;
71759;SDS011;59919;48.112;16.280;2023-02-03T10:40:23;0.85;;;0.30;;
71759;SDS011;59919;48.112;16.280;2023-02-03T10:42:59;0.47;;;0.28;;
71759;SDS011;59919;48.112;16.280;2023-02-03T10:45:51;0.77;;;0.20;;
71759;SDS011;59919;48.112;16.280;2023-02-03T10:48:22;0.73;;;0.25;;
71759;SDS011;59919;48.112;16.280;2023-02-03T10:50:57;1.27;;;0.30;;
71759;SDS011;59919;48.112;16.280;2023-02-03T10:53:34;0.85;;;0.30;;
71759;SDS011;59919;48.112;16.280;2023-02-03T10:56:10;0.57;;;0.20;;
71759;SDS011;59919;48.112;16.280;2023-02-03T10:58:49;0.30;;;0.10;;
71759;SDS011;59919;48.112;16.280;2023-02-03T11:01:24;0.43;;;0.17;;
71759;SDS011;59919;48.112;16.280;2023-02-03T11:04:21;0.30;;;0.20;;
71759;SDS011;59919;48.112;16.280;2023-02-03T11:06:58;0.38;;;0.20;;
71759;SDS011;59919;48.112;16.280;2023-02-03T11:09:38;0.20;;;0.20;;
71759;SDS011;59919;48.112;16.280;2023-02-03T11:12:12;2.25;;;0.30;;
71759;SDS011;59919;48.112;16.280;2023-02-03T11:14:50;0.28;;;0.20;;
71759;SDS011;59919;48.112;16.280;2023-02-03T11:17:25;0.82;;;0.28;;
71759;SDS011;59919;48.112;16.280;2023-02-03T11:20:23;0.22;;;0.20;;
71759;SDS011;59919;48.112;16.280;2023-02-03T11:23:03;0.47;;;0.20;;
71759;SDS011;59919;48.112;16.280;2023-02-03T11:25:35;1.23;;;0.25;;
71759;SDS011;59919;48.112;16.280;2023-02-03T11:28:09;0.30;;;0.30;;
71759;SDS011;59919;48.112;16.280;2023-02-03T11:30:45;0.25;;;0.20;;
71759;SDS011;59919;48.112;16.280;2023-02-03T11:33:25;0.30;;;0.20;;
71759;SDS011;59919;48.112;16.280;2023-02-03T11:35:58;1.25;;;0.20;;
71759;SDS011;59919;48.112;16.280;2023-02-03T11:38:33;0.30;;;0.30;;
71759;SDS011;59919;48.112;16.280;2023-02-03T11:41:17;0.77;;;0.30;;
71759;SDS011;59919;48.112;16.280;2023-02-03T11:43:50;1.15;;;0.40;;
71759;SDS011;59919;48.112;16.280;2023-02-03T11:46:25;2.05;;;0.30;;
71759;SDS011;59919;48.112;16.280;2023-02-03T11:49:00;0.85;;;0.30;;
71759;SDS011;59919;48.112;16.280;2023-02-03T11:51:52;0.30;;;0.20;;
71759;SDS011;59919;48.112;16.280;2023-02-03T11:54:46;0.38;;;0.20;;
71759;SDS011;59919;48.112;16.280;2023-02-03T11:57:49;1.95;;;0.30;;
71759;SDS011;59919;48.112;16.280;2023-02-03T12:00:33;0.50;;;0.20;;
71759;SDS011;59919;48.112;16.280;2023-02-03T12:06:58;0.13;;;0.10;;
71759;SDS011;59919;48.112;16.280;2023-02-03T12:12:32;0.75;;;0.30;;
71759;SDS011;59919;48.112;16.280;2023-02-03T12:23:37;0.50;;;0.30;;
71759;SDS011;59919;48.112;16.280;2023-02-03T12:26:38;0.85;;;0.20;;
71759;SDS011;59919;48.112;16.280;2023-02-03T12:29:23;1.15;;;0.32;;
71759;SDS011;59919;48.112;16.280;2023-02-03T12:32:04;2.22;;;0.30;;
71759;SDS011;59919;48.112;16.280;2023-02-03T12:37:30;3.00;;;0.40;;
71759;SDS011;59919;48.112;16.280;2023-02-03T12:42:52;2.58;;;0.40;;
71759;SDS011;59919;48.112;16.280;2023-02-03T12:45:28;5.95;;;0.60;;
71759;SDS011;59919;48.112;16.280;2023-02-03T12:48:16;2.83;;;0.22;;
71759;SDS011;59919;48.112;16.280;2023-02-03T12:50:55;5.10;;;0.70;;
71759;SDS011;59919;48.112;16.280;2023-02-03T12:53:42;3.20;;;0.50;;
71759;SDS011;59919;48.112;16.280;2023-02-03T12:56:23;2.95;;;0.47;;
71759;SDS011;59919;48.112;16.280;2023-02-03T12:58:59;1.35;;;0.38;;
71759;SDS011;59919;48.112;16.280;2023-02-03T13:01:55;1.80;;;0.40;;
71759;SDS011;59919;48.112;16.280;2023-02-03T13:04:34;3.20;;;0.60;;
71759;SDS011;59919;48.112;16.280;2023-02-03T13:07:23;0.73;;;0.30;;
71759;SDS011;59919;48.112;16.280;2023-02-03T13:10:11;1.90;;;0.40;;
71759;SDS011;59919;48.112;16.280;2023-02-03T13:12:55;2.58;;;0.60;;
71759;SDS011;59919;48.112;16.280;2023-02-03T13:15:38;4.82;;;0.40;;
71759;SDS011;59919;48.112;16.280;2023-02-03T13:20:55;0.82;;;0.30;;
71759;SDS011;59919;48.112;16.280;2023-02-03T13:23:30;2.08;;;0.30;;
71759;SDS011;59919;48.112;16.280;2023-02-03T13:28:58;1.88;;;0.30;;
71759;SDS011;59919;48.112;16.280;2023-02-03T13:40:23;1.08;;;0.50;;
71759;SDS011;59919;48.112;16.280;2023-02-03T13:43:02;2.00;;;0.40;;
71759;SDS011;59919;48.112;16.280;2023-02-03T13:45:40;0.30;;;0.22;;
71759;SDS011;59919;48.112;16.280;2023-02-03T13:48:16;6.30;;;0.50;;
71759;SDS011;59919;48.112;16.280;2023-02-03T13:50:50;0.63;;;0.30;;
71759;SDS011;59919;48.112;16.280;2023-02-03T13:53:34;1.65;;;0.55;;
71759;SDS011;59919;48.112;16.280;2023-02-03T13:56:24;1.73;;;0.20;;
71759;SDS011;59919;48.112;16.280;2023-02-03T13:59:04;0.88;;;0.20;;
71759;SDS011;59919;48.112;16.280;2023-02-03T14:01:41;1.70;;;0.40;;
71759;SDS011;59919;48.112;16.280;2023-02-03T14:06:58;0.85;;;0.60;;
71759;SDS011;59919;48.112;16.280;2023-02-03T14:09:34;1.73;;;0.40;;
71759;SDS011;59919;48.112;16.280;2023-02-03T14:12:20;1.55;;;0.30;;
71759;SDS011;59919;48.112;16.280;2023-02-03T14:17:56;1.30;;;0.30;;
71759;SDS011;59919;48.112;16.280;2023-02-03T14:20:33;2.60;;;0.43;;
71759;SDS011;59919;48.112;16.280;2023-02-03T14:23:16;1.42;;;0.30;;
71759;SDS011;59919;48.112;16.280;2023-02-03T14:26:30;1.45;;;0.40;;
71759;SDS011;59919;48.112;16.280;2023-02-03T14:29:04;1.58;;;0.30;;
71759;SDS011;59919;48.112;16.280;2023-02-03T14:51:14;1.08;;;0.20;;
71759;SDS011;59919;48.112;16.280;2023-02-03T15:00:04;3.55;;;0.57;;
71759;SDS011;59919;48.112;16.280;2023-02-03T15:03:13;0.93;;;0.30;;
71759;SDS011;59919;48.112;16.280;2023-02-03T15:05:46;0.80;;;0.20;;
71759;SDS011;59919;48.112;16.280;2023-02-03T15:11:20;0.70;;;0.30;;
71759;SDS011;59919;48.112;16.280;2023-02-03T15:14:16;0.47;;;0.30;;
71759;SDS011;59919;48.112;16.280;2023-02-03T15:16:54;0.57;;;0.32;;
71759;SDS011;59919;48.112;16.280;2023-02-03T15:19:33;1.13;;;0.20;;
71759;SDS011;59919;48.112;16.280;2023-02-03T15:22:17;0.75;;;0.22;;
71759;SDS011;59919;48.112;16.280;2023-02-03T15:24:50;1.38;;;0.22;;
71759;SDS011;59919;48.112;16.280;2023-02-03T15:27:24;2.38;;;0.57;;
71759;SDS011;59919;48.112;16.280;2023-02-03T15:29:59;1.27;;;0.30;;
71759;SDS011;59919;48.112;16.280;2023-02-03T15:32:47;0.40;;;0.22;;
71759;SDS011;59919;48.112;16.280;2023-02-03T15:35:43;2.05;;;0.25;;
71759;SDS011;59919;48.112;16.280;2023-02-03T15:38:19;1.60;;;0.10;;
71759;SDS011;59919;48.112;16.280;2023-02-03T15:41:00;0.57;;;0.22;;
71759;SDS011;59919;48.112;16.280;2023-02-03T15:43:37;1.92;;;0.30;;
71759;SDS011;59919;48.112;16.280;2023-02-03T15:46:19;0.43;;;0.40;;
71759;SDS011;59919;48.112;16.280;2023-02-03T15:49:26;1.27;;;0.30;;
71759;SDS011;59919;48.112;16.280;2023-02-03T15:52:17;1.42;;;0.30;;
71759;SDS011;59919;48.112;16.280;2023-02-03T15:54:52;0.57;;;0.30;;
71759;SDS011;59919;48.112;16.280;2023-02-03T15:57:32;0.13;;;0.10;;
71759;SDS011;59919;48.112;16.280;2023-02-03T16:00:08;0.70;;;0.40;;
71759;SDS011;59919;48.112;16.280;2023-02-03T16:02:57;0.50;;;0.30;;
71759;SDS011;59919;48.112;16.280;2023-02-03T16:05:32;0.93;;;0.20;;
71759;SDS011;59919;48.112;16.280;2023-02-03T16:14:04;1.63;;;0.22;;
71759;SDS011;59919;48.112;16.280;2023-02-03T16:16:42;0.30;;;0.20;;
71759;SDS011;59919;48.112;16.280;2023-02-03T16:19:24;0.30;;;0.20;;
71759;SDS011;59919;48.112;16.280;2023-02-03T16:22:00;0.40;;;0.32;;
71759;SDS011;59919;48.112;16.280;2023-02-03T16:35:54;0.88;;;0.30;;
71759;SDS011;59919;48.112;16.280;2023-02-03T16:41:37;0.50;;;0.20;;
71759;SDS011;59919;48.112;16.280;2023-02-03T16:44:27;0.95;;;0.20;;
71759;SDS011;59919;48.112;16.280;2023-02-03T16:47:22;0.63;;;0.30;;
71759;SDS011;59919;48.112;16.280;2023-02-03T16:50:14;0.70;;;0.20;;
71759;SDS011;59919;48.112;16.280;2023-02-03T16:53:13;0.40;;;0.30;;
71759;SDS011;59919;48.112;16.280;2023-02-03T16:55:50;0.40;;;0.20;;
71759;SDS011;59919;48.112;16.280;2023-02-03T16:58:22;0.90;;;0.20;;
71759;SDS011;59919;48.112;16.280;2023-02-03T17:00:58;0.30;;;0.25;;
71759;SDS011;59919;48.112;16.280;2023-02-03T17:03:32;0.15;;;0.15;;
71759;SDS011;59919;48.112;16.280;2023-02-03T17:06:07;0.35;;;0.30;;
71759;SDS011;59919;48.112;16.280;2023-02-03T17:08:42;0.55;;;0.20;;
71759;SDS011;59919;48.112;16.280;2023-02-03T17:11:14;0.98;;;0.30;;
71759;SDS011;59919;48.112;16.280;2023-02-03T17:13:49;2.38;;;0.38;;
71759;SDS011;59919;48.112;16.280;2023-02-03T17:16:25;1.05;;;0.13;;
71759;SDS011;59919;48.112;16.280;2023-02-03T17:18:57;0.60;;;0.20;;
71759;SDS011;59919;48.112;16.280;2023-02-03T17:21:29;0.38;;;0.20;;
71759;SDS011;59919;48.112;16.280;2023-02-03T17:24:01;0.60;;;0.38;;
71759;SDS011;59919;48.112;16.280;2023-02-03T17:26:35;0.68;;;0.35;;
71759;SDS011;59919;48.112;16.280;2023-02-03T17:29:06;0.30;;;0.30;;
71759;SDS011;59919;48.112;16.280;2023-02-03T17:31:40;1.00;;;0.30;;
71759;SDS011;59919;48.112;16.280;2023-02-03T17:34:12;0.75;;;0.20;;
71759;SDS011;59919;48.112;16.280;2023-02-03T17:36:46;1.30;;;0.25;;
71759;SDS011;59919;48.112;16.280;2023-02-03T17:39:18;0.47;;;0.25;;
71759;SDS011;59919;48.112;16.280;2023-02-03T17:41:52;0.63;;;0.32;;
71759;SDS011;59919;48.112;16.280;2023-02-03T17:44:23;0.30;;;0.20;;